sensor_id;sensor_type;location;lat;lon;timestamp;P1;durP1;ratioP1;P2;durP2;ratioP2
74457;SDS011;62896;51.032;3.712;2023-09-18T00:00:24;6.9;;;5.8;;
74457;SDS011;62896;51.032;3.712;2023-09-18T00:03:44;6.9;;;5.8;;
74457;SDS011;62896;51.032;3.712;2023-09-18T00:07:04;6.9;;;5.8;;
74457;SDS011;62896;51.032;3.712;2023-09-18T00:10:25;6.9;;;5.8;;
74457;SDS011;62896;51.032;3.712;2023-09-18T00:13:44;6.9;;;5.8;;
74457;SDS011;62896;51.032;3.712;2023-09-18T00:17:04;6.1;;;5.4;;
74457;SDS011;62896;51.032;3.712;2023-09-18T00:20:24;6.1;;;5.4;;
74457;SDS011;62896;51.032;3.712;2023-09-18T00:23:44;6.1;;;5.4;;
74457;SDS011;62896;51.032;3.712;2023-09-18T00:27:04;6.1;;;5.4;;
74457;SDS011;62896;51.032;3.712;2023-09-18T00:30:24;6.1;;;5.4;;
74457;SDS011;62896;51.032;3.712;2023-09-18T00:33:44;6.1;;;5.4;;
74457;SDS011;62896;51.032;3.712;2023-09-18T00:37:04;6.1;;;5.4;;
74457;SDS011;62896;51.032;3.712;2023-09-18T00:40:24;6.2;;;3.8;;
74457;SDS011;62896;51.032;3.712;2023-09-18T00:43:44;6.2;;;3.8;;
74457;SDS011;62896;51.032;3.712;2023-09-18T00:47:04;6.2;;;3.8;;
74457;SDS011;62896;51.032;3.712;2023-09-18T00:50:24;6.2;;;3.8;;
74457;SDS011;62896;51.032;3.712;2023-09-18T00:53:44;6.2;;;3.8;;
74457;SDS011;62896;51.032;3.712;2023-09-18T00:57:04;6.2;;;3.8;;
74457;SDS011;62896;51.032;3.712;2023-09-18T01:00:24;6.2;;;3.8;;
74457;SDS011;62896;51.032;3.712;2023-09-18T01:03:44;6.2;;;3.8;;
74457;SDS011;62896;51.032;3.712;2023-09-18T01:07:04;6.4;;;3.7;;
74457;SDS011;62896;51.032;3.712;2023-09-18T01:10:24;6.4;;;3.7;;
74457;SDS011;62896;51.032;3.712;2023-09-18T01:13:45;6.4;;;3.7;;
74457;SDS011;62896;51.032;3.712;2023-09-18T01:17:04;6.4;;;3.7;;
74457;SDS011;62896;51.032;3.712;2023-09-18T01:20:24;6.4;;;3.7;;
74457;SDS011;62896;51.032;3.712;2023-09-18T01:23:44;6.4;;;3.7;;
74457;SDS011;62896;51.032;3.712;2023-09-18T01:27:07;6.4;;;3.7;;
74457;SDS011;62896;51.032;3.712;2023-09-18T01:30:24;5.6;;;3.5;;
74457;SDS011;62896;51.032;3.712;2023-09-18T01:33:44;5.6;;;3.5;;
74457;SDS011;62896;51.032;3.712;2023-09-18T01:37:04;5.6;;;3.5;;
74457;SDS011;62896;51.032;3.712;2023-09-18T01:40:24;5.6;;;3.5;;
74457;SDS011;62896;51.032;3.712;2023-09-18T01:43:44;5.6;;;3.5;;
74457;SDS011;62896;51.032;3.712;2023-09-18T01:47:05;5.6;;;3.5;;
74457;SDS011;62896;51.032;3.712;2023-09-18T01:50:24;5.6;;;3.5;;
74457;SDS011;62896;51.032;3.712;2023-09-18T01:53:44;5.6;;;3.5;;
74457;SDS011;62896;51.032;3.712;2023-09-18T01:57:05;6.3;;;3.8;;
74457;SDS011;62896;51.032;3.712;2023-09-18T02:00:24;6.3;;;3.8;;
74457;SDS011;62896;51.032;3.712;2023-09-18T02:03:44;6.3;;;3.8;;
74457;SDS011;62896;51.032;3.712;2023-09-18T02:07:05;6.3;;;3.8;;
74457;SDS011;62896;51.032;3.712;2023-09-18T02:10:24;6.3;;;3.8;;
74457;SDS011;62896;51.032;3.712;2023-09-18T02:13:44;6.3;;;3.8;;
74457;SDS011;62896;51.032;3.712;2023-09-18T02:17:04;6.3;;;3.8;;
74457;SDS011;62896;51.032;3.712;2023-09-18T02:20:24;6.5;;;4;;
74457;SDS011;62896;51.032;3.712;2023-09-18T02:23:44;6.5;;;4;;
74457;SDS011;62896;51.032;3.712;2023-09-18T02:27:04;6.5;;;4;;
74457;SDS011;62896;51.032;3.712;2023-09-18T02:30:24;6.5;;;4;;
74457;SDS011;62896;51.032;3.712;2023-09-18T02:33:44;6.5;;;4;;
74457;SDS011;62896;51.032;3.712;2023-09-18T02:37:04;6.5;;;4;;
74457;SDS011;62896;51.032;3.712;2023-09-18T02:40:24;6.5;;;4;;
74457;SDS011;62896;51.032;3.712;2023-09-18T02:43:44;6.5;;;4;;
74457;SDS011;62896;51.032;3.712;2023-09-18T02:47:04;5;;;3.4;;
74457;SDS011;62896;51.032;3.712;2023-09-18T02:50:24;5;;;3.4;;
74457;SDS011;62896;51.032;3.712;2023-09-18T02:53:44;5;;;3.4;;
74457;SDS011;62896;51.032;3.712;2023-09-18T02:57:04;5;;;3.4;;
74457;SDS011;62896;51.032;3.712;2023-09-18T03:00:24;5;;;3.4;;
74457;SDS011;62896;51.032;3.712;2023-09-18T03:03:44;5;;;3.4;;
74457;SDS011;62896;51.032;3.712;2023-09-18T03:07:04;5;;;3.4;;
74457;SDS011;62896;51.032;3.712;2023-09-18T03:10:24;4.2;;;3;;
74457;SDS011;62896;51.032;3.712;2023-09-18T03:13:44;4.2;;;3;;
74457;SDS011;62896;51.032;3.712;2023-09-18T03:17:04;4.2;;;3;;
74457;SDS011;62896;51.032;3.712;2023-09-18T03:20:24;4.2;;;3;;
74457;SDS011;62896;51.032;3.712;2023-09-18T03:23:44;4.2;;;3;;
74457;SDS011;62896;51.032;3.712;2023-09-18T03:27:04;4.2;;;3;;
74457;SDS011;62896;51.032;3.712;2023-09-18T03:30:24;4.2;;;3;;
74457;SDS011;62896;51.032;3.712;2023-09-18T03:33:44;4.2;;;3;;
74457;SDS011;62896;51.032;3.712;2023-09-18T03:37:04;4.9;;;3;;
74457;SDS011;62896;51.032;3.712;2023-09-18T03:40:24;4.9;;;3;;
74457;SDS011;62896;51.032;3.712;2023-09-18T03:43:44;4.9;;;3;;
74457;SDS011;62896;51.032;3.712;2023-09-18T03:47:04;4.9;;;3;;
74457;SDS011;62896;51.032;3.712;2023-09-18T03:50:24;4.9;;;3;;
74457;SDS011;62896;51.032;3.712;2023-09-18T03:53:44;4.9;;;3;;
74457;SDS011;62896;51.032;3.712;2023-09-18T03:57:04;4.9;;;3;;
74457;SDS011;62896;51.032;3.712;2023-09-18T04:00:24;5.5;;;3.5;;
74457;SDS011;62896;51.032;3.712;2023-09-18T04:03:44;5.5;;;3.5;;
74457;SDS011;62896;51.032;3.712;2023-09-18T04:07:05;5.5;;;3.5;;
74457;SDS011;62896;51.032;3.712;2023-09-18T04:10:25;5.5;;;3.5;;
74457;SDS011;62896;51.032;3.712;2023-09-18T04:13:44;5.5;;;3.5;;
74457;SDS011;62896;51.032;3.712;2023-09-18T04:17:04;5.5;;;3.5;;
74457;SDS011;62896;51.032;3.712;2023-09-18T04:20:24;5.5;;;3.5;;
74457;SDS011;62896;51.032;3.712;2023-09-18T04:23:44;5.5;;;3.5;;
74457;SDS011;62896;51.032;3.712;2023-09-18T04:27:04;8.5;;;3.3;;
74457;SDS011;62896;51.032;3.712;2023-09-18T04:30:24;8.5;;;3.3;;
74457;SDS011;62896;51.032;3.712;2023-09-18T04:33:44;8.5;;;3.3;;
74457;SDS011;62896;51.032;3.712;2023-09-18T04:37:04;8.5;;;3.3;;
74457;SDS011;62896;51.032;3.712;2023-09-18T04:40:24;8.5;;;3.3;;
74457;SDS011;62896;51.032;3.712;2023-09-18T04:43:44;8.5;;;3.3;;
74457;SDS011;62896;51.032;3.712;2023-09-18T04:47:04;8.5;;;3.3;;
74457;SDS011;62896;51.032;3.712;2023-09-18T04:50:24;4.3;;;2.3;;
74457;SDS011;62896;51.032;3.712;2023-09-18T04:53:44;4.3;;;2.3;;
74457;SDS011;62896;51.032;3.712;2023-09-18T04:57:04;4.3;;;2.3;;
74457;SDS011;62896;51.032;3.712;2023-09-18T05:00:24;4.3;;;2.3;;
74457;SDS011;62896;51.032;3.712;2023-09-18T05:03:44;4.3;;;2.3;;
74457;SDS011;62896;51.032;3.712;2023-09-18T05:07:04;4.3;;;2.3;;
74457;SDS011;62896;51.032;3.712;2023-09-18T05:10:24;4.3;;;2.3;;
74457;SDS011;62896;51.032;3.712;2023-09-18T05:13:44;4.3;;;2.3;;
74457;SDS011;62896;51.032;3.712;2023-09-18T05:17:04;6;;;1.8;;
74457;SDS011;62896;51.032;3.712;2023-09-18T05:20:24;6;;;1.8;;
74457;SDS011;62896;51.032;3.712;2023-09-18T05:23:44;6;;;1.8;;
74457;SDS011;62896;51.032;3.712;2023-09-18T05:27:04;6;;;1.8;;
74457;SDS011;62896;51.032;3.712;2023-09-18T05:30:25;6;;;1.8;;
74457;SDS011;62896;51.032;3.712;2023-09-18T05:33:44;6;;;1.8;;
74457;SDS011;62896;51.032;3.712;2023-09-18T05:37:04;6;;;1.8;;
74457;SDS011;62896;51.032;3.712;2023-09-18T05:40:24;2.8;;;1.3;;
74457;SDS011;62896;51.032;3.712;2023-09-18T05:43:44;2.8;;;1.3;;
74457;SDS011;62896;51.032;3.712;2023-09-18T05:47:04;2.8;;;1.3;;
74457;SDS011;62896;51.032;3.712;2023-09-18T05:50:24;2.8;;;1.3;;
74457;SDS011;62896;51.032;3.712;2023-09-18T05:53:44;2.8;;;1.3;;
74457;SDS011;62896;51.032;3.712;2023-09-18T05:57:04;2.8;;;1.3;;
74457;SDS011;62896;51.032;3.712;2023-09-18T06:00:24;2.8;;;1.3;;
74457;SDS011;62896;51.032;3.712;2023-09-18T06:03:44;2.8;;;1.3;;
74457;SDS011;62896;51.032;3.712;2023-09-18T06:07:04;3.2;;;1.6;;
74457;SDS011;62896;51.032;3.712;2023-09-18T06:10:24;3.2;;;1.6;;
74457;SDS011;62896;51.032;3.712;2023-09-18T06:13:44;3.2;;;1.6;;
74457;SDS011;62896;51.032;3.712;2023-09-18T06:17:04;3.2;;;1.6;;
74457;SDS011;62896;51.032;3.712;2023-09-18T06:20:24;3.2;;;1.6;;
74457;SDS011;62896;51.032;3.712;2023-09-18T06:23:44;3.2;;;1.6;;
74457;SDS011;62896;51.032;3.712;2023-09-18T06:27:04;3.2;;;1.6;;
74457;SDS011;62896;51.032;3.712;2023-09-18T06:30:24;4.1;;;1.6;;
74457;SDS011;62896;51.032;3.712;2023-09-18T06:33:44;4.1;;;1.6;;
74457;SDS011;62896;51.032;3.712;2023-09-18T06:37:04;4.1;;;1.6;;
74457;SDS011;62896;51.032;3.712;2023-09-18T06:40:24;4.1;;;1.6;;
74457;SDS011;62896;51.032;3.712;2023-09-18T06:43:44;4.1;;;1.6;;
74457;SDS011;62896;51.032;3.712;2023-09-18T06:47:04;4.1;;;1.6;;
74457;SDS011;62896;51.032;3.712;2023-09-18T06:50:24;4.1;;;1.6;;
74457;SDS011;62896;51.032;3.712;2023-09-18T06:53:44;4.1;;;1.6;;
74457;SDS011;62896;51.032;3.712;2023-09-18T06:57:04;3.3;;;1.8;;
74457;SDS011;62896;51.032;3.712;2023-09-18T07:00:24;3.3;;;1.8;;
74457;SDS011;62896;51.032;3.712;2023-09-18T07:03:44;3.3;;;1.8;;
74457;SDS011;62896;51.032;3.712;2023-09-18T07:07:04;3.3;;;1.8;;
74457;SDS011;62896;51.032;3.712;2023-09-18T07:10:24;3.3;;;1.8;;
74457;SDS011;62896;51.032;3.712;2023-09-18T07:13:44;3.3;;;1.8;;
74457;SDS011;62896;51.032;3.712;2023-09-18T07:17:04;3.3;;;1.8;;
74457;SDS011;62896;51.032;3.712;2023-09-18T07:20:24;5;;;2.4;;
74457;SDS011;62896;51.032;3.712;2023-09-18T07:23:45;5;;;2.4;;
74457;SDS011;62896;51.032;3.712;2023-09-18T07:27:04;5;;;2.4;;
74457;SDS011;62896;51.032;3.712;2023-09-18T07:30:24;5;;;2.4;;
74457;SDS011;62896;51.032;3.712;2023-09-18T07:33:44;5;;;2.4;;
74457;SDS011;62896;51.032;3.712;2023-09-18T07:37:04;5;;;2.4;;
74457;SDS011;62896;51.032;3.712;2023-09-18T07:40:24;5;;;2.4;;
74457;SDS011;62896;51.032;3.712;2023-09-18T07:43:44;5;;;2.4;;
74457;SDS011;62896;51.032;3.712;2023-09-18T07:47:04;6.4;;;2.8;;
74457;SDS011;62896;51.032;3.712;2023-09-18T07:50:24;6.4;;;2.8;;
74457;SDS011;62896;51.032;3.712;2023-09-18T07:53:44;6.4;;;2.8;;
74457;SDS011;62896;51.032;3.712;2023-09-18T07:57:04;6.4;;;2.8;;
74457;SDS011;62896;51.032;3.712;2023-09-18T08:00:24;6.4;;;2.8;;
74457;SDS011;62896;51.032;3.712;2023-09-18T08:03:44;6.4;;;2.8;;
74457;SDS011;62896;51.032;3.712;2023-09-18T08:07:04;6.4;;;2.8;;
74457;SDS011;62896;51.032;3.712;2023-09-18T08:10:24;5;;;2.3;;
74457;SDS011;62896;51.032;3.712;2023-09-18T08:13:44;5;;;2.3;;
74457;SDS011;62896;51.032;3.712;2023-09-18T08:17:04;5;;;2.3;;
74457;SDS011;62896;51.032;3.712;2023-09-18T08:20:25;5;;;2.3;;
74457;SDS011;62896;51.032;3.712;2023-09-18T08:23:44;5;;;2.3;;
74457;SDS011;62896;51.032;3.712;2023-09-18T08:27:04;5;;;2.3;;
74457;SDS011;62896;51.032;3.712;2023-09-18T08:30:24;5;;;2.3;;
74457;SDS011;62896;51.032;3.712;2023-09-18T08:33:44;5;;;2.3;;
74457;SDS011;62896;51.032;3.712;2023-09-18T08:37:04;5.1;;;2.9;;
74457;SDS011;62896;51.032;3.712;2023-09-18T08:40:24;5.1;;;2.9;;
74457;SDS011;62896;51.032;3.712;2023-09-18T08:43:44;5.1;;;2.9;;
74457;SDS011;62896;51.032;3.712;2023-09-18T08:47:04;5.1;;;2.9;;
74457;SDS011;62896;51.032;3.712;2023-09-18T08:50:24;5.1;;;2.9;;
74457;SDS011;62896;51.032;3.712;2023-09-18T08:53:44;5.1;;;2.9;;
74457;SDS011;62896;51.032;3.712;2023-09-18T08:57:04;5.1;;;2.9;;
74457;SDS011;62896;51.032;3.712;2023-09-18T09:00:24;4.4;;;2.8;;
74457;SDS011;62896;51.032;3.712;2023-09-18T09:03:44;4.4;;;2.8;;
74457;SDS011;62896;51.032;3.712;2023-09-18T09:07:04;4.4;;;2.8;;
74457;SDS011;62896;51.032;3.712;2023-09-18T09:10:24;4.4;;;2.8;;
74457;SDS011;62896;51.032;3.712;2023-09-18T09:13:44;4.4;;;2.8;;
74457;SDS011;62896;51.032;3.712;2023-09-18T09:17:04;4.4;;;2.8;;
74457;SDS011;62896;51.032;3.712;2023-09-18T09:20:24;4.4;;;2.8;;
74457;SDS011;62896;51.032;3.712;2023-09-18T09:23:45;4.4;;;2.8;;
74457;SDS011;62896;51.032;3.712;2023-09-18T09:27:04;6.6;;;2.5;;
74457;SDS011;62896;51.032;3.712;2023-09-18T09:30:25;6.6;;;2.5;;
74457;SDS011;62896;51.032;3.712;2023-09-18T09:33:49;6.6;;;2.5;;
74457;SDS011;62896;51.032;3.712;2023-09-18T09:37:04;6.6;;;2.5;;
74457;SDS011;62896;51.032;3.712;2023-09-18T09:40:24;6.6;;;2.5;;
74457;SDS011;62896;51.032;3.712;2023-09-18T09:43:44;6.6;;;2.5;;
74457;SDS011;62896;51.032;3.712;2023-09-18T09:47:05;6.6;;;2.5;;
74457;SDS011;62896;51.032;3.712;2023-09-18T09:50:24;6.1;;;2.5;;
74457;SDS011;62896;51.032;3.712;2023-09-18T09:53:45;6.1;;;2.5;;
74457;SDS011;62896;51.032;3.712;2023-09-18T09:57:04;6.1;;;2.5;;
74457;SDS011;62896;51.032;3.712;2023-09-18T10:00:26;6.1;;;2.5;;
74457;SDS011;62896;51.032;3.712;2023-09-18T10:03:44;6.1;;;2.5;;
74457;SDS011;62896;51.032;3.712;2023-09-18T10:07:05;6.1;;;2.5;;
74457;SDS011;62896;51.032;3.712;2023-09-18T10:10:26;6.1;;;2.5;;
74457;SDS011;62896;51.032;3.712;2023-09-18T10:13:46;6.1;;;2.5;;
74457;SDS011;62896;51.032;3.712;2023-09-18T10:17:08;4.4;;;2.3;;
74457;SDS011;62896;51.032;3.712;2023-09-18T10:20:24;4.4;;;2.3;;
74457;SDS011;62896;51.032;3.712;2023-09-18T10:23:47;4.4;;;2.3;;
74457;SDS011;62896;51.032;3.712;2023-09-18T10:27:04;4.4;;;2.3;;
74457;SDS011;62896;51.032;3.712;2023-09-18T10:30:24;4.4;;;2.3;;
74457;SDS011;62896;51.032;3.712;2023-09-18T10:33:44;4.4;;;2.3;;
74457;SDS011;62896;51.032;3.712;2023-09-18T10:37:04;4.4;;;2.3;;
74457;SDS011;62896;51.032;3.712;2023-09-18T10:40:24;4.3;;;2.3;;
74457;SDS011;62896;51.032;3.712;2023-09-18T10:43:44;4.3;;;2.3;;
74457;SDS011;62896;51.032;3.712;2023-09-18T10:47:04;4.3;;;2.3;;
74457;SDS011;62896;51.032;3.712;2023-09-18T10:50:25;4.3;;;2.3;;
74457;SDS011;62896;51.032;3.712;2023-09-18T10:53:44;4.3;;;2.3;;
74457;SDS011;62896;51.032;3.712;2023-09-18T10:57:04;4.3;;;2.3;;
74457;SDS011;62896;51.032;3.712;2023-09-18T11:00:25;4.3;;;2.3;;
74457;SDS011;62896;51.032;3.712;2023-09-18T11:03:44;4.3;;;2.3;;
74457;SDS011;62896;51.032;3.712;2023-09-18T11:07:04;5.2;;;2.1;;
74457;SDS011;62896;51.032;3.712;2023-09-18T11:10:25;5.2;;;2.1;;
74457;SDS011;62896;51.032;3.712;2023-09-18T11:13:45;5.2;;;2.1;;
74457;SDS011;62896;51.032;3.712;2023-09-18T11:17:04;5.2;;;2.1;;
74457;SDS011;62896;51.032;3.712;2023-09-18T11:20:24;5.2;;;2.1;;
74457;SDS011;62896;51.032;3.712;2023-09-18T11:23:44;5.2;;;2.1;;
74457;SDS011;62896;51.032;3.712;2023-09-18T11:27:04;5.2;;;2.1;;
74457;SDS011;62896;51.032;3.712;2023-09-18T11:30:24;4.9;;;2.2;;
74457;SDS011;62896;51.032;3.712;2023-09-18T11:33:44;4.9;;;2.2;;
74457;SDS011;62896;51.032;3.712;2023-09-18T11:37:18;4.9;;;2.2;;
74457;SDS011;62896;51.032;3.712;2023-09-18T11:40:28;4.9;;;2.2;;
74457;SDS011;62896;51.032;3.712;2023-09-18T11:43:44;4.9;;;2.2;;
74457;SDS011;62896;51.032;3.712;2023-09-18T11:47:04;4.9;;;2.2;;
74457;SDS011;62896;51.032;3.712;2023-09-18T11:50:24;4.9;;;2.2;;
74457;SDS011;62896;51.032;3.712;2023-09-18T11:53:44;4.9;;;2.2;;
74457;SDS011;62896;51.032;3.712;2023-09-18T11:57:05;6.4;;;1.6;;
74457;SDS011;62896;51.032;3.712;2023-09-18T12:00:24;6.4;;;1.6;;
74457;SDS011;62896;51.032;3.712;2023-09-18T12:03:44;6.4;;;1.6;;
74457;SDS011;62896;51.032;3.712;2023-09-18T12:07:04;6.4;;;1.6;;
74457;SDS011;62896;51.032;3.712;2023-09-18T12:10:24;6.4;;;1.6;;
74457;SDS011;62896;51.032;3.712;2023-09-18T12:13:44;6.4;;;1.6;;
74457;SDS011;62896;51.032;3.712;2023-09-18T12:17:04;6.4;;;1.6;;
74457;SDS011;62896;51.032;3.712;2023-09-18T12:20:24;2.5;;;1.5;;
74457;SDS011;62896;51.032;3.712;2023-09-18T12:23:45;2.5;;;1.5;;
74457;SDS011;62896;51.032;3.712;2023-09-18T12:27:04;2.5;;;1.5;;
74457;SDS011;62896;51.032;3.712;2023-09-18T12:30:25;2.5;;;1.5;;
74457;SDS011;62896;51.032;3.712;2023-09-18T12:33:44;2.5;;;1.5;;
74457;SDS011;62896;51.032;3.712;2023-09-18T12:37:04;2.5;;;1.5;;
74457;SDS011;62896;51.032;3.712;2023-09-18T12:40:25;2.5;;;1.5;;
74457;SDS011;62896;51.032;3.712;2023-09-18T12:43:44;2.5;;;1.5;;
74457;SDS011;62896;51.032;3.712;2023-09-18T12:47:04;3.6;;;1.6;;
74457;SDS011;62896;51.032;3.712;2023-09-18T12:50:24;3.6;;;1.6;;
74457;SDS011;62896;51.032;3.712;2023-09-18T12:53:44;3.6;;;1.6;;
74457;SDS011;62896;51.032;3.712;2023-09-18T12:57:05;3.6;;;1.6;;
74457;SDS011;62896;51.032;3.712;2023-09-18T13:00:24;3.6;;;1.6;;
74457;SDS011;62896;51.032;3.712;2023-09-18T13:03:45;3.6;;;1.6;;
74457;SDS011;62896;51.032;3.712;2023-09-18T13:07:06;3.6;;;1.6;;
74457;SDS011;62896;51.032;3.712;2023-09-18T13:10:24;6.2;;;1.6;;
74457;SDS011;62896;51.032;3.712;2023-09-18T13:13:44;6.2;;;1.6;;
74457;SDS011;62896;51.032;3.712;2023-09-18T13:17:04;6.2;;;1.6;;
74457;SDS011;62896;51.032;3.712;2023-09-18T13:20:25;6.2;;;1.6;;
74457;SDS011;62896;51.032;3.712;2023-09-18T13:23:44;6.2;;;1.6;;
74457;SDS011;62896;51.032;3.712;2023-09-18T13:27:04;6.2;;;1.6;;
74457;SDS011;62896;51.032;3.712;2023-09-18T13:30:24;6.2;;;1.6;;
74457;SDS011;62896;51.032;3.712;2023-09-18T13:33:44;6.2;;;1.6;;
74457;SDS011;62896;51.032;3.712;2023-09-18T13:37:04;12.3;;;1.8;;
74457;SDS011;62896;51.032;3.712;2023-09-18T13:40:25;12.3;;;1.8;;
74457;SDS011;62896;51.032;3.712;2023-09-18T13:43:44;12.3;;;1.8;;
74457;SDS011;62896;51.032;3.712;2023-09-18T13:47:04;12.3;;;1.8;;
74457;SDS011;62896;51.032;3.712;2023-09-18T13:50:25;12.3;;;1.8;;
74457;SDS011;62896;51.032;3.712;2023-09-18T13:53:44;12.3;;;1.8;;
74457;SDS011;62896;51.032;3.712;2023-09-18T13:57:04;12.3;;;1.8;;
74457;SDS011;62896;51.032;3.712;2023-09-18T14:00:24;6.1;;;1.7;;
74457;SDS011;62896;51.032;3.712;2023-09-18T14:03:44;6.1;;;1.7;;
74457;SDS011;62896;51.032;3.712;2023-09-18T14:07:05;6.1;;;1.7;;
74457;SDS011;62896;51.032;3.712;2023-09-18T14:10:25;6.1;;;1.7;;
74457;SDS011;62896;51.032;3.712;2023-09-18T14:13:44;6.1;;;1.7;;
74457;SDS011;62896;51.032;3.712;2023-09-18T14:17:04;6.1;;;1.7;;
74457;SDS011;62896;51.032;3.712;2023-09-18T14:20:24;6.1;;;1.7;;
74457;SDS011;62896;51.032;3.712;2023-09-18T14:23:44;6.1;;;1.7;;
74457;SDS011;62896;51.032;3.712;2023-09-18T14:27:05;4.5;;;1.8;;
74457;SDS011;62896;51.032;3.712;2023-09-18T14:30:24;4.5;;;1.8;;
74457;SDS011;62896;51.032;3.712;2023-09-18T14:33:44;4.5;;;1.8;;
74457;SDS011;62896;51.032;3.712;2023-09-18T14:37:04;4.5;;;1.8;;
74457;SDS011;62896;51.032;3.712;2023-09-18T14:40:24;4.5;;;1.8;;
74457;SDS011;62896;51.032;3.712;2023-09-18T14:43:45;4.5;;;1.8;;
74457;SDS011;62896;51.032;3.712;2023-09-18T14:47:04;4.5;;;1.8;;
74457;SDS011;62896;51.032;3.712;2023-09-18T14:50:24;3.2;;;1.6;;
74457;SDS011;62896;51.032;3.712;2023-09-18T14:53:45;3.2;;;1.6;;
74457;SDS011;62896;51.032;3.712;2023-09-18T14:57:05;3.2;;;1.6;;
74457;SDS011;62896;51.032;3.712;2023-09-18T15:00:25;3.2;;;1.6;;
74457;SDS011;62896;51.032;3.712;2023-09-18T15:03:44;3.2;;;1.6;;
74457;SDS011;62896;51.032;3.712;2023-09-18T15:07:05;3.2;;;1.6;;
74457;SDS011;62896;51.032;3.712;2023-09-18T15:10:25;3.2;;;1.6;;
74457;SDS011;62896;51.032;3.712;2023-09-18T15:13:45;3.2;;;1.6;;
74457;SDS011;62896;51.032;3.712;2023-09-18T15:17:05;3.6;;;1.3;;
74457;SDS011;62896;51.032;3.712;2023-09-18T15:20:25;3.6;;;1.3;;
74457;SDS011;62896;51.032;3.712;2023-09-18T15:23:45;3.6;;;1.3;;
74457;SDS011;62896;51.032;3.712;2023-09-18T15:27:05;3.6;;;1.3;;
74457;SDS011;62896;51.032;3.712;2023-09-18T15:30:25;3.6;;;1.3;;
74457;SDS011;62896;51.032;3.712;2023-09-18T15:33:45;3.6;;;1.3;;
74457;SDS011;62896;51.032;3.712;2023-09-18T15:37:05;3.6;;;1.3;;
74457;SDS011;62896;51.032;3.712;2023-09-18T15:40:25;5;;;1.3;;
74457;SDS011;62896;51.032;3.712;2023-09-18T15:43:45;5;;;1.3;;
74457;SDS011;62896;51.032;3.712;2023-09-18T15:47:05;5;;;1.3;;
74457;SDS011;62896;51.032;3.712;2023-09-18T15:50:25;5;;;1.3;;
74457;SDS011;62896;51.032;3.712;2023-09-18T15:53:45;5;;;1.3;;
74457;SDS011;62896;51.032;3.712;2023-09-18T15:57:05;5;;;1.3;;
74457;SDS011;62896;51.032;3.712;2023-09-18T16:00:25;5;;;1.3;;
74457;SDS011;62896;51.032;3.712;2023-09-18T16:03:45;5;;;1.3;;
74457;SDS011;62896;51.032;3.712;2023-09-18T16:07:05;4.7;;;1.4;;
74457;SDS011;62896;51.032;3.712;2023-09-18T16:10:25;4.7;;;1.4;;
74457;SDS011;62896;51.032;3.712;2023-09-18T16:13:45;4.7;;;1.4;;
74457;SDS011;62896;51.032;3.712;2023-09-18T16:17:05;4.7;;;1.4;;
74457;SDS011;62896;51.032;3.712;2023-09-18T16:20:25;4.7;;;1.4;;
74457;SDS011;62896;51.032;3.712;2023-09-18T16:23:45;4.7;;;1.4;;
74457;SDS011;62896;51.032;3.712;2023-09-18T16:27:05;4.7;;;1.4;;
74457;SDS011;62896;51.032;3.712;2023-09-18T16:30:25;5.7;;;1.4;;
74457;SDS011;62896;51.032;3.712;2023-09-18T16:33:45;5.7;;;1.4;;
74457;SDS011;62896;51.032;3.712;2023-09-18T16:37:05;5.7;;;1.4;;
74457;SDS011;62896;51.032;3.712;2023-09-18T16:40:25;5.7;;;1.4;;
74457;SDS011;62896;51.032;3.712;2023-09-18T16:43:45;5.7;;;1.4;;
74457;SDS011;62896;51.032;3.712;2023-09-18T16:47:05;5.7;;;1.4;;
74457;SDS011;62896;51.032;3.712;2023-09-18T16:50:25;5.7;;;1.4;;
74457;SDS011;62896;51.032;3.712;2023-09-18T16:53:45;5.7;;;1.4;;
74457;SDS011;62896;51.032;3.712;2023-09-18T16:57:05;5.1;;;1.5;;
74457;SDS011;62896;51.032;3.712;2023-09-18T17:00:25;5.1;;;1.5;;
74457;SDS011;62896;51.032;3.712;2023-09-18T17:03:45;5.1;;;1.5;;
74457;SDS011;62896;51.032;3.712;2023-09-18T17:07:05;5.1;;;1.5;;
74457;SDS011;62896;51.032;3.712;2023-09-18T17:10:25;5.1;;;1.5;;
74457;SDS011;62896;51.032;3.712;2023-09-18T17:13:45;5.1;;;1.5;;
74457;SDS011;62896;51.032;3.712;2023-09-18T17:17:05;5.1;;;1.5;;
74457;SDS011;62896;51.032;3.712;2023-09-18T17:20:25;4.8;;;1.4;;
74457;SDS011;62896;51.032;3.712;2023-09-18T17:23:45;4.8;;;1.4;;
74457;SDS011;62896;51.032;3.712;2023-09-18T17:27:05;4.8;;;1.4;;
74457;SDS011;62896;51.032;3.712;2023-09-18T17:30:25;4.8;;;1.4;;
74457;SDS011;62896;51.032;3.712;2023-09-18T17:33:45;4.8;;;1.4;;
74457;SDS011;62896;51.032;3.712;2023-09-18T17:37:05;4.8;;;1.4;;
74457;SDS011;62896;51.032;3.712;2023-09-18T17:40:25;4.8;;;1.4;;
74457;SDS011;62896;51.032;3.712;2023-09-18T17:43:45;4.8;;;1.4;;
74457;SDS011;62896;51.032;3.712;2023-09-18T17:47:05;7.6;;;1.3;;
74457;SDS011;62896;51.032;3.712;2023-09-18T17:50:25;7.6;;;1.3;;
74457;SDS011;62896;51.032;3.712;2023-09-18T17:53:45;7.6;;;1.3;;
74457;SDS011;62896;51.032;3.712;2023-09-18T17:57:05;7.6;;;1.3;;
74457;SDS011;62896;51.032;3.712;2023-09-18T18:00:25;7.6;;;1.3;;
74457;SDS011;62896;51.032;3.712;2023-09-18T18:03:45;7.6;;;1.3;;
74457;SDS011;62896;51.032;3.712;2023-09-18T18:07:05;7.6;;;1.3;;
74457;SDS011;62896;51.032;3.712;2023-09-18T18:10:25;6.6;;;1.5;;
74457;SDS011;62896;51.032;3.712;2023-09-18T18:13:45;6.6;;;1.5;;
74457;SDS011;62896;51.032;3.712;2023-09-18T18:17:05;6.6;;;1.5;;
74457;SDS011;62896;51.032;3.712;2023-09-18T18:20:25;6.6;;;1.5;;
74457;SDS011;62896;51.032;3.712;2023-09-18T18:23:45;6.6;;;1.5;;
74457;SDS011;62896;51.032;3.712;2023-09-18T18:27:05;6.6;;;1.5;;
74457;SDS011;62896;51.032;3.712;2023-09-18T18:30:25;6.6;;;1.5;;
74457;SDS011;62896;51.032;3.712;2023-09-18T18:33:45;6.6;;;1.5;;
74457;SDS011;62896;51.032;3.712;2023-09-18T18:37:05;9.2;;;2.4;;
74457;SDS011;62896;51.032;3.712;2023-09-18T18:40:25;9.2;;;2.4;;
74457;SDS011;62896;51.032;3.712;2023-09-18T18:43:45;9.2;;;2.4;;
74457;SDS011;62896;51.032;3.712;2023-09-18T18:47:05;9.2;;;2.4;;
74457;SDS011;62896;51.032;3.712;2023-09-18T18:50:25;9.2;;;2.4;;
74457;SDS011;62896;51.032;3.712;2023-09-18T18:53:45;9.2;;;2.4;;
74457;SDS011;62896;51.032;3.712;2023-09-18T18:57:05;9.2;;;2.4;;
74457;SDS011;62896;51.032;3.712;2023-09-18T19:00:25;13.2;;;2.6;;
74457;SDS011;62896;51.032;3.712;2023-09-18T19:03:45;13.2;;;2.6;;
74457;SDS011;62896;51.032;3.712;2023-09-18T19:07:05;13.2;;;2.6;;
74457;SDS011;62896;51.032;3.712;2023-09-18T19:10:25;13.2;;;2.6;;
74457;SDS011;62896;51.032;3.712;2023-09-18T19:13:45;13.2;;;2.6;;
74457;SDS011;62896;51.032;3.712;2023-09-18T19:17:05;13.2;;;2.6;;
74457;SDS011;62896;51.032;3.712;2023-09-18T19:20:25;13.2;;;2.6;;
74457;SDS011;62896;51.032;3.712;2023-09-18T19:23:45;13.2;;;2.6;;
74457;SDS011;62896;51.032;3.712;2023-09-18T19:27:05;13;;;2.6;;
74457;SDS011;62896;51.032;3.712;2023-09-18T19:30:25;13;;;2.6;;
74457;SDS011;62896;51.032;3.712;2023-09-18T19:33:45;13;;;2.6;;
74457;SDS011;62896;51.032;3.712;2023-09-18T19:37:05;13;;;2.6;;
74457;SDS011;62896;51.032;3.712;2023-09-18T19:40:25;13;;;2.6;;
74457;SDS011;62896;51.032;3.712;2023-09-18T19:43:45;13;;;2.6;;
74457;SDS011;62896;51.032;3.712;2023-09-18T19:47:05;13;;;2.6;;
74457;SDS011;62896;51.032;3.712;2023-09-18T19:50:25;13.5;;;2.3;;
74457;SDS011;62896;51.032;3.712;2023-09-18T19:53:45;13.5;;;2.3;;
74457;SDS011;62896;51.032;3.712;2023-09-18T19:57:05;13.5;;;2.3;;
74457;SDS011;62896;51.032;3.712;2023-09-18T20:00:25;13.5;;;2.3;;
74457;SDS011;62896;51.032;3.712;2023-09-18T20:03:45;13.5;;;2.3;;
74457;SDS011;62896;51.032;3.712;2023-09-18T20:07:05;13.5;;;2.3;;
74457;SDS011;62896;51.032;3.712;2023-09-18T20:10:25;13.5;;;2.3;;
74457;SDS011;62896;51.032;3.712;2023-09-18T20:13:45;13.5;;;2.3;;
74457;SDS011;62896;51.032;3.712;2023-09-18T20:17:05;12.1;;;2.1;;
74457;SDS011;62896;51.032;3.712;2023-09-18T20:20:25;12.1;;;2.1;;
74457;SDS011;62896;51.032;3.712;2023-09-18T20:23:45;12.1;;;2.1;;
74457;SDS011;62896;51.032;3.712;2023-09-18T20:27:05;12.1;;;2.1;;
74457;SDS011;62896;51.032;3.712;2023-09-18T20:30:25;12.1;;;2.1;;
74457;SDS011;62896;51.032;3.712;2023-09-18T20:33:45;12.1;;;2.1;;
74457;SDS011;62896;51.032;3.712;2023-09-18T20:37:05;12.1;;;2.1;;
74457;SDS011;62896;51.032;3.712;2023-09-18T20:40:25;12;;;2.3;;
74457;SDS011;62896;51.032;3.712;2023-09-18T20:43:45;12;;;2.3;;
74457;SDS011;62896;51.032;3.712;2023-09-18T20:47:05;12;;;2.3;;